sensor_id;sensor_type;location;lat;lon;timestamp;P1;durP1;ratioP1;P2;durP2;ratioP2
50853;SDS011;44154;45.506;-122.806;2023-02-24T00:01:41;1.27;;;0.60;;
50853;SDS011;44154;45.506;-122.806;2023-02-24T00:04:16;1.65;;;0.68;;
50853;SDS011;44154;45.506;-122.806;2023-02-24T00:06:43;1.40;;;0.70;;
50853;SDS011;44154;45.506;-122.806;2023-02-24T00:09:11;0.65;;;0.40;;
50853;SDS011;44154;45.506;-122.806;2023-02-24T00:11:43;1.05;;;0.70;;
50853;SDS011;44154;45.506;-122.806;2023-02-24T00:14:12;1.40;;;0.60;;
50853;SDS011;44154;45.506;-122.806;2023-02-24T00:16:43;1.20;;;0.60;;
50853;SDS011;44154;45.506;-122.806;2023-02-24T00:19:12;0.88;;;0.57;;
50853;SDS011;44154;45.506;-122.806;2023-02-24T00:21:40;1.08;;;0.50;;
50853;SDS011;44154;45.506;-122.806;2023-02-24T00:24:07;1.60;;;0.60;;
50853;SDS011;44154;45.506;-122.806;2023-02-24T00:26:34;0.98;;;0.55;;
50853;SDS011;44154;45.506;-122.806;2023-02-24T00:29:02;1.58;;;0.80;;
50853;SDS011;44154;45.506;-122.806;2023-02-24T00:31:30;1.25;;;0.70;;
50853;SDS011;44154;45.506;-122.806;2023-02-24T00:33:59;1.83;;;0.60;;
50853;SDS011;44154;45.506;-122.806;2023-02-24T00:36:27;2.47;;;0.70;;
50853;SDS011;44154;45.506;-122.806;2023-02-24T00:38:55;1.48;;;0.60;;
50853;SDS011;44154;45.506;-122.806;2023-02-24T00:41:24;0.60;;;0.40;;
50853;SDS011;44154;45.506;-122.806;2023-02-24T00:43:56;1.88;;;0.68;;
50853;SDS011;44154;45.506;-122.806;2023-02-24T00:46:35;1.35;;;0.50;;
50853;SDS011;44154;45.506;-122.806;2023-02-24T00:49:04;0.82;;;0.35;;
50853;SDS011;44154;45.506;-122.806;2023-02-24T00:51:40;0.75;;;0.35;;
50853;SDS011;44154;45.506;-122.806;2023-02-24T00:54:08;0.60;;;0.30;;
50853;SDS011;44154;45.506;-122.806;2023-02-24T00:56:39;0.68;;;0.50;;
50853;SDS011;44154;45.506;-122.806;2023-02-24T00:59:11;1.58;;;0.50;;
50853;SDS011;44154;45.506;-122.806;2023-02-24T01:01:39;0.90;;;0.50;;
50853;SDS011;44154;45.506;-122.806;2023-02-24T01:04:07;0.75;;;0.40;;
50853;SDS011;44154;45.506;-122.806;2023-02-24T01:06:43;1.98;;;0.57;;
50853;SDS011;44154;45.506;-122.806;2023-02-24T01:09:12;1.55;;;0.50;;
50853;SDS011;44154;45.506;-122.806;2023-02-24T01:11:41;1.33;;;0.45;;
50853;SDS011;44154;45.506;-122.806;2023-02-24T01:14:28;0.55;;;0.30;;
50853;SDS011;44154;45.506;-122.806;2023-02-24T01:16:56;0.50;;;0.40;;
50853;SDS011;44154;45.506;-122.806;2023-02-24T01:19:24;1.00;;;0.30;;
50853;SDS011;44154;45.506;-122.806;2023-02-24T01:21:59;0.30;;;0.20;;
50853;SDS011;44154;45.506;-122.806;2023-02-24T01:24:27;0.50;;;0.30;;
50853;SDS011;44154;45.506;-122.806;2023-02-24T01:26:56;0.68;;;0.25;;
50853;SDS011;44154;45.506;-122.806;2023-02-24T01:29:22;0.40;;;0.20;;
50853;SDS011;44154;45.506;-122.806;2023-02-24T01:31:50;0.90;;;0.40;;
50853;SDS011;44154;45.506;-122.806;2023-02-24T01:34:17;0.55;;;0.40;;
50853;SDS011;44154;45.506;-122.806;2023-02-24T01:36:43;2.05;;;0.30;;
50853;SDS011;44154;45.506;-122.806;2023-02-24T01:39:12;1.50;;;0.30;;
50853;SDS011;44154;45.506;-122.806;2023-02-24T01:41:40;2.15;;;0.50;;
50853;SDS011;44154;45.506;-122.806;2023-02-24T01:46:47;2.10;;;0.40;;
50853;SDS011;44154;45.506;-122.806;2023-02-24T01:49:17;0.82;;;0.30;;
50853;SDS011;44154;45.506;-122.806;2023-02-24T01:51:57;1.08;;;0.30;;
50853;SDS011;44154;45.506;-122.806;2023-02-24T01:57:08;0.93;;;0.57;;
50853;SDS011;44154;45.506;-122.806;2023-02-24T01:59:41;3.08;;;2.05;;
50853;SDS011;44154;45.506;-122.806;2023-02-24T02:02:10;7.38;;;4.07;;
50853;SDS011;44154;45.506;-122.806;2023-02-24T02:04:40;5.85;;;3.90;;
50853;SDS011;44154;45.506;-122.806;2023-02-24T02:07:24;5.95;;;4.40;;
50853;SDS011;44154;45.506;-122.806;2023-02-24T02:09:52;10.05;;;6.55;;
50853;SDS011;44154;45.506;-122.806;2023-02-24T02:12:21;13.73;;;6.28;;
50853;SDS011;44154;45.506;-122.806;2023-02-24T02:14:49;10.30;;;6.47;;
50853;SDS011;44154;45.506;-122.806;2023-02-24T02:17:25;9.13;;;5.95;;
50853;SDS011;44154;45.506;-122.806;2023-02-24T02:39:38;8.40;;;5.10;;
50853;SDS011;44154;45.506;-122.806;2023-02-24T02:45:15;7.60;;;4.50;;
50853;SDS011;44154;45.506;-122.806;2023-02-24T02:50:25;6.00;;;4.20;;
50853;SDS011;44154;45.506;-122.806;2023-02-24T02:53:27;6.00;;;3.92;;
50853;SDS011;44154;45.506;-122.806;2023-02-24T02:55:59;7.45;;;3.72;;
50853;SDS011;44154;45.506;-122.806;2023-02-24T02:58:36;5.55;;;3.47;;
50853;SDS011;44154;45.506;-122.806;2023-02-24T03:01:04;5.32;;;4.07;;
50853;SDS011;44154;45.506;-122.806;2023-02-24T03:03:36;4.78;;;3.00;;
50853;SDS011;44154;45.506;-122.806;2023-02-24T03:06:09;6.95;;;3.47;;
50853;SDS011;44154;45.506;-122.806;2023-02-24T03:08:41;5.72;;;3.47;;
50853;SDS011;44154;45.506;-122.806;2023-02-24T03:11:14;4.55;;;2.80;;
50853;SDS011;44154;45.506;-122.806;2023-02-24T03:13:44;5.30;;;3.13;;
50853;SDS011;44154;45.506;-122.806;2023-02-24T03:16:13;7.13;;;2.90;;
50853;SDS011;44154;45.506;-122.806;2023-02-24T03:18:43;5.43;;;2.90;;
50853;SDS011;44154;45.506;-122.806;2023-02-24T03:23:53;5.70;;;2.75;;
50853;SDS011;44154;45.506;-122.806;2023-02-24T03:26:23;9.63;;;2.97;;
50853;SDS011;44154;45.506;-122.806;2023-02-24T03:29:02;3.22;;;2.40;;
50853;SDS011;44154;45.506;-122.806;2023-02-24T03:35:12;4.43;;;2.60;;
50853;SDS011;44154;45.506;-122.806;2023-02-24T03:37:23;9.05;;;2.65;;
50853;SDS011;44154;45.506;-122.806;2023-02-24T03:39:52;5.50;;;2.05;;
50853;SDS011;44154;45.506;-122.806;2023-02-24T03:42:21;5.68;;;1.98;;
50853;SDS011;44154;45.506;-122.806;2023-02-24T03:44:49;3.38;;;1.80;;
50853;SDS011;44154;45.506;-122.806;2023-02-24T03:47:16;3.03;;;1.52;;
50853;SDS011;44154;45.506;-122.806;2023-02-24T03:49:45;2.17;;;1.13;;
50853;SDS011;44154;45.506;-122.806;2023-02-24T03:52:19;3.05;;;1.20;;
50853;SDS011;44154;45.506;-122.806;2023-02-24T03:54:59;3.15;;;1.30;;
50853;SDS011;44154;45.506;-122.806;2023-02-24T03:57:52;7.50;;;1.55;;
50853;SDS011;44154;45.506;-122.806;2023-02-24T04:00:26;4.25;;;1.30;;
50853;SDS011;44154;45.506;-122.806;2023-02-24T04:03:28;8.73;;;1.65;;
50853;SDS011;44154;45.506;-122.806;2023-02-24T04:09:07;4.65;;;1.48;;
50853;SDS011;44154;45.506;-122.806;2023-02-24T04:14:46;4.10;;;1.30;;
50853;SDS011;44154;45.506;-122.806;2023-02-24T04:19:54;6.07;;;1.38;;
50853;SDS011;44154;45.506;-122.806;2023-02-24T04:22:25;6.93;;;1.48;;
50853;SDS011;44154;45.506;-122.806;2023-02-24T04:24:57;6.85;;;1.20;;
50853;SDS011;44154;45.506;-122.806;2023-02-24T04:27:26;4.50;;;1.40;;
50853;SDS011;44154;45.506;-122.806;2023-02-24T04:29:53;5.68;;;1.27;;
50853;SDS011;44154;45.506;-122.806;2023-02-24T04:32:25;4.63;;;1.45;;
50853;SDS011;44154;45.506;-122.806;2023-02-24T04:35:01;6.95;;;1.30;;
50853;SDS011;44154;45.506;-122.806;2023-02-24T04:37:34;4.15;;;1.20;;
50853;SDS011;44154;45.506;-122.806;2023-02-24T04:40:04;6.45;;;1.20;;
50853;SDS011;44154;45.506;-122.806;2023-02-24T04:42:40;6.32;;;1.67;;
50853;SDS011;44154;45.506;-122.806;2023-02-24T04:45:11;3.78;;;1.23;;
50853;SDS011;44154;45.506;-122.806;2023-02-24T04:47:38;5.88;;;1.25;;
50853;SDS011;44154;45.506;-122.806;2023-02-24T04:50:07;5.43;;;1.52;;
50853;SDS011;44154;45.506;-122.806;2023-02-24T04:52:36;4.05;;;1.40;;
50853;SDS011;44154;45.506;-122.806;2023-02-24T04:55:03;4.22;;;1.08;;
50853;SDS011;44154;45.506;-122.806;2023-02-24T04:57:35;4.10;;;1.33;;
50853;SDS011;44154;45.506;-122.806;2023-02-24T05:00:04;4.55;;;1.30;;
50853;SDS011;44154;45.506;-122.806;2023-02-24T05:02:52;5.97;;;2.25;;
50853;SDS011;44154;45.506;-122.806;2023-02-24T05:05:20;4.68;;;1.80;;
50853;SDS011;44154;45.506;-122.806;2023-02-24T05:10:37;4.28;;;1.40;;
50853;SDS011;44154;45.506;-122.806;2023-02-24T05:13:06;3.60;;;1.30;;
50853;SDS011;44154;45.506;-122.806;2023-02-24T05:15:34;5.40;;;1.30;;
50853;SDS011;44154;45.506;-122.806;2023-02-24T05:18:05;3.53;;;1.25;;
50853;SDS011;44154;45.506;-122.806;2023-02-24T05:20:37;1.85;;;1.02;;
50853;SDS011;44154;45.506;-122.806;2023-02-24T05:23:26;2.65;;;1.00;;
50853;SDS011;44154;45.506;-122.806;2023-02-24T05:26:12;4.00;;;1.00;;
50853;SDS011;44154;45.506;-122.806;2023-02-24T05:28:41;3.00;;;1.20;;
50853;SDS011;44154;45.506;-122.806;2023-02-24T05:31:12;3.65;;;1.13;;
50853;SDS011;44154;45.506;-122.806;2023-02-24T05:33:40;4.97;;;1.45;;
50853;SDS011;44154;45.506;-122.806;2023-02-24T05:36:09;2.65;;;1.30;;
50853;SDS011;44154;45.506;-122.806;2023-02-24T05:38:39;2.70;;;1.02;;
50853;SDS011;44154;45.506;-122.806;2023-02-24T05:41:06;2.30;;;0.93;;
50853;SDS011;44154;45.506;-122.806;2023-02-24T05:43:39;1.90;;;1.00;;
50853;SDS011;44154;45.506;-122.806;2023-02-24T05:46:05;2.75;;;0.98;;
50853;SDS011;44154;45.506;-122.806;2023-02-24T05:48:33;2.20;;;0.90;;
50853;SDS011;44154;45.506;-122.806;2023-02-24T05:51:01;2.22;;;1.10;;
50853;SDS011;44154;45.506;-122.806;2023-02-24T05:53:28;1.98;;;1.08;;
50853;SDS011;44154;45.506;-122.806;2023-02-24T05:55:54;2.17;;;0.90;;
50853;SDS011;44154;45.506;-122.806;2023-02-24T05:58:24;1.85;;;0.88;;
50853;SDS011;44154;45.506;-122.806;2023-02-24T06:00:53;2.13;;;0.95;;
50853;SDS011;44154;45.506;-122.806;2023-02-24T06:03:20;2.03;;;0.90;;
50853;SDS011;44154;45.506;-122.806;2023-02-24T06:05:57;2.22;;;0.80;;
50853;SDS011;44154;45.506;-122.806;2023-02-24T06:08:31;2.45;;;1.10;;
50853;SDS011;44154;45.506;-122.806;2023-02-24T06:11:09;1.88;;;1.17;;
50853;SDS011;44154;45.506;-122.806;2023-02-24T06:13:36;2.65;;;0.90;;
50853;SDS011;44154;45.506;-122.806;2023-02-24T06:16:06;1.48;;;1.00;;
50853;SDS011;44154;45.506;-122.806;2023-02-24T06:18:36;1.58;;;0.90;;
50853;SDS011;44154;45.506;-122.806;2023-02-24T06:21:05;2.55;;;1.00;;
50853;SDS011;44154;45.506;-122.806;2023-02-24T06:23:35;1.40;;;0.90;;
50853;SDS011;44154;45.506;-122.806;2023-02-24T06:26:02;1.33;;;0.80;;
50853;SDS011;44154;45.506;-122.806;2023-02-24T06:28:29;2.35;;;0.90;;
50853;SDS011;44154;45.506;-122.806;2023-02-24T06:30:55;1.88;;;0.95;;
50853;SDS011;44154;45.506;-122.806;2023-02-24T06:33:22;1.92;;;0.77;;
50853;SDS011;44154;45.506;-122.806;2023-02-24T06:35:51;1.27;;;0.85;;
50853;SDS011;44154;45.506;-122.806;2023-02-24T06:38:17;2.08;;;1.05;;
50853;SDS011;44154;45.506;-122.806;2023-02-24T06:40:43;2.17;;;1.00;;
50853;SDS011;44154;45.506;-122.806;2023-02-24T06:43:11;1.55;;;1.00;;
50853;SDS011;44154;45.506;-122.806;2023-02-24T06:45:37;2.13;;;0.90;;
50853;SDS011;44154;45.506;-122.806;2023-02-24T06:48:04;2.45;;;0.80;;
50853;SDS011;44154;45.506;-122.806;2023-02-24T06:50:32;1.30;;;0.80;;
50853;SDS011;44154;45.506;-122.806;2023-02-24T06:52:58;1.75;;;0.90;;
50853;SDS011;44154;45.506;-122.806;2023-02-24T06:55:27;1.15;;;0.65;;
50853;SDS011;44154;45.506;-122.806;2023-02-24T06:57:57;0.90;;;0.70;;
50853;SDS011;44154;45.506;-122.806;2023-02-24T07:00:32;1.48;;;0.77;;
50853;SDS011;44154;45.506;-122.806;2023-02-24T07:03:13;2.13;;;0.70;;
50853;SDS011;44154;45.506;-122.806;2023-02-24T07:05:42;3.13;;;0.80;;
50853;SDS011;44154;45.506;-122.806;2023-02-24T07:08:18;2.13;;;0.90;;
50853;SDS011;44154;45.506;-122.806;2023-02-24T07:10:56;3.08;;;0.80;;
50853;SDS011;44154;45.506;-122.806;2023-02-24T07:13:24;2.28;;;0.80;;
50853;SDS011;44154;45.506;-122.806;2023-02-24T07:15:54;1.33;;;0.80;;
50853;SDS011;44154;45.506;-122.806;2023-02-24T07:18:20;2.08;;;0.80;;
50853;SDS011;44154;45.506;-122.806;2023-02-24T07:20:51;1.38;;;0.75;;
50853;SDS011;44154;45.506;-122.806;2023-02-24T07:23:18;1.20;;;0.60;;
50853;SDS011;44154;45.506;-122.806;2023-02-24T07:25:45;4.07;;;0.75;;
50853;SDS011;44154;45.506;-122.806;2023-02-24T07:28:12;4.60;;;1.52;;
50853;SDS011;44154;45.506;-122.806;2023-02-24T07:30:38;4.15;;;1.10;;
50853;SDS011;44154;45.506;-122.806;2023-02-24T07:33:06;4.45;;;1.10;;
50853;SDS011;44154;45.506;-122.806;2023-02-24T07:35:33;1.40;;;0.70;;
50853;SDS011;44154;45.506;-122.806;2023-02-24T07:38:04;1.50;;;0.85;;
50853;SDS011;44154;45.506;-122.806;2023-02-24T07:40:31;4.10;;;1.00;;
50853;SDS011;44154;45.506;-122.806;2023-02-24T07:43:00;2.92;;;0.80;;
50853;SDS011;44154;45.506;-122.806;2023-02-24T07:45:27;1.40;;;0.70;;
50853;SDS011;44154;45.506;-122.806;2023-02-24T07:47:54;2.33;;;0.95;;
50853;SDS011;44154;45.506;-122.806;2023-02-24T07:50:20;2.00;;;0.70;;
50853;SDS011;44154;45.506;-122.806;2023-02-24T07:52:47;1.80;;;0.80;;
50853;SDS011;44154;45.506;-122.806;2023-02-24T07:55:14;1.73;;;0.77;;
50853;SDS011;44154;45.506;-122.806;2023-02-24T07:57:41;1.70;;;0.73;;
50853;SDS011;44154;45.506;-122.806;2023-02-24T08:00:11;3.45;;;0.93;;
50853;SDS011;44154;45.506;-122.806;2023-02-24T08:02:53;1.42;;;0.70;;
50853;SDS011;44154;45.506;-122.806;2023-02-24T08:05:22;1.42;;;0.77;;
50853;SDS011;44154;45.506;-122.806;2023-02-24T08:07:49;2.25;;;1.20;;
50853;SDS011;44154;45.506;-122.806;2023-02-24T08:10:16;1.08;;;0.90;;
50853;SDS011;44154;45.506;-122.806;2023-02-24T08:12:54;1.27;;;0.80;;
50853;SDS011;44154;45.506;-122.806;2023-02-24T08:15:22;1.85;;;1.10;;
50853;SDS011;44154;45.506;-122.806;2023-02-24T08:17:53;1.90;;;0.90;;
50853;SDS011;44154;45.506;-122.806;2023-02-24T08:20:26;1.67;;;0.77;;
50853;SDS011;44154;45.506;-122.806;2023-02-24T08:23:22;1.00;;;0.70;;
50853;SDS011;44154;45.506;-122.806;2023-02-24T08:25:48;1.15;;;0.77;;
50853;SDS011;44154;45.506;-122.806;2023-02-24T08:28:14;1.33;;;0.80;;
50853;SDS011;44154;45.506;-122.806;2023-02-24T08:30:42;1.25;;;0.82;;
50853;SDS011;44154;45.506;-122.806;2023-02-24T08:33:13;2.25;;;0.85;;
50853;SDS011;44154;45.506;-122.806;2023-02-24T08:35:44;1.83;;;0.80;;
50853;SDS011;44154;45.506;-122.806;2023-02-24T08:38:17;2.42;;;1.20;;
50853;SDS011;44154;45.506;-122.806;2023-02-24T08:40:47;1.05;;;0.73;;
50853;SDS011;44154;45.506;-122.806;2023-02-24T08:43:23;0.65;;;0.45;;
50853;SDS011;44154;45.506;-122.806;2023-02-24T08:45:56;1.40;;;0.65;;
50853;SDS011;44154;45.506;-122.806;2023-02-24T08:48:26;1.45;;;0.70;;
50853;SDS011;44154;45.506;-122.806;2023-02-24T08:51:03;1.58;;;0.70;;
50853;SDS011;44154;45.506;-122.806;2023-02-24T08:53:35;0.95;;;0.68;;
50853;SDS011;44154;45.506;-122.806;2023-02-24T08:56:05;0.90;;;0.65;;
50853;SDS011;44154;45.506;-122.806;2023-02-24T08:58:40;1.02;;;0.70;;
50853;SDS011;44154;45.506;-122.806;2023-02-24T09:01:16;1.20;;;0.70;;
50853;SDS011;44154;45.506;-122.806;2023-02-24T09:03:47;1.15;;;0.73;;
50853;SDS011;44154;45.506;-122.806;2023-02-24T09:06:16;0.70;;;0.50;;
50853;SDS011;44154;45.506;-122.806;2023-02-24T09:08:50;0.98;;;0.70;;
50853;SDS011;44154;45.506;-122.806;2023-02-24T09:11:39;1.38;;;1.10;;
50853;SDS011;44154;45.506;-122.806;2023-02-24T09:14:09;0.80;;;0.70;;
50853;SDS011;44154;45.506;-122.806;2023-02-24T09:16:47;0.85;;;0.70;;
50853;SDS011;44154;45.506;-122.806;2023-02-24T09:22:06;1.25;;;0.60;;
50853;SDS011;44154;45.506;-122.806;2023-02-24T09:24:54;0.63;;;0.50;;
50853;SDS011;44154;45.506;-122.806;2023-02-24T09:27:39;0.82;;;0.60;;
50853;SDS011;44154;45.506;-122.806;2023-02-24T09:30:09;1.55;;;0.50;;
50853;SDS011;44154;45.506;-122.806;2023-02-24T09:32:55;1.08;;;0.82;;
50853;SDS011;44154;45.506;-122.806;2023-02-24T09:35:28;1.45;;;0.70;;
50853;SDS011;44154;45.506;-122.806;2023-02-24T09:37:58;1.15;;;0.90;;
50853;SDS011;44154;45.506;-122.806;2023-02-24T09:40:25;2.10;;;0.80;;
50853;SDS011;44154;45.506;-122.806;2023-02-24T09:45:59;0.98;;;0.50;;
50853;SDS011;44154;45.506;-122.806;2023-02-24T09:48:59;1.17;;;0.60;;
50853;SDS011;44154;45.506;-122.806;2023-02-24T09:51:39;0.90;;;0.63;;
50853;SDS011;44154;45.506;-122.806;2023-02-24T09:54:10;0.93;;;0.50;;
50853;SDS011;44154;45.506;-122.806;2023-02-24T09:56:49;0.60;;;0.50;;
50853;SDS011;44154;45.506;-122.806;2023-02-24T09:59:40;0.70;;;0.55;;
50853;SDS011;44154;45.506;-122.806;2023-02-24T10:02:42;0.65;;;0.45;;
50853;SDS011;44154;45.506;-122.806;2023-02-24T10:05:37;0.90;;;0.70;;
50853;SDS011;44154;45.506;-122.806;2023-02-24T10:08:18;0.80;;;0.50;;
50853;SDS011;44154;45.506;-122.806;2023-02-24T10:10:51;1.08;;;0.55;;
50853;SDS011;44154;45.506;-122.806;2023-02-24T10:13:41;0.50;;;0.43;;
50853;SDS011;44154;45.506;-122.806;2023-02-24T10:16:13;0.70;;;0.40;;
50853;SDS011;44154;45.506;-122.806;2023-02-24T10:18:51;1.25;;;0.40;;
50853;SDS011;44154;45.506;-122.806;2023-02-24T10:21:44;0.60;;;0.50;;
50853;SDS011;44154;45.506;-122.806;2023-02-24T10:33:22;0.82;;;0.65;;
50853;SDS011;44154;45.506;-122.806;2023-02-24T10:36:08;0.95;;;0.57;;
50853;SDS011;44154;45.506;-122.806;2023-02-24T10:38:50;0.88;;;0.40;;
50853;SDS011;44154;45.506;-122.806;2023-02-24T10:41:20;0.60;;;0.40;;
50853;SDS011;44154;45.506;-122.806;2023-02-24T10:43:54;0.50;;;0.35;;
50853;SDS011;44154;45.506;-122.806;2023-02-24T10:48:59;1.02;;;0.57;;
50853;SDS011;44154;45.506;-122.806;2023-02-24T10:54:14;0.80;;;0.50;;
50853;SDS011;44154;45.506;-122.806;2023-02-24T10:56:49;0.80;;;0.45;;
50853;SDS011;44154;45.506;-122.806;2023-02-24T10:59:24;1.17;;;0.50;;
50853;SDS011;44154;45.506;-122.806;2023-02-24T11:02:20;0.80;;;0.65;;
50853;SDS011;44154;45.506;-122.806;2023-02-24T11:04:54;0.88;;;0.60;;
50853;SDS011;44154;45.506;-122.806;2023-02-24T11:07:27;0.50;;;0.30;;
50853;SDS011;44154;45.506;-122.806;2023-02-24T11:10:21;0.67;;;0.40;;
50853;SDS011;44154;45.506;-122.806;2023-02-24T11:12:56;0.40;;;0.30;;
50853;SDS011;44154;45.506;-122.806;2023-02-24T11:15:47;1.48;;;0.30;;
50853;SDS011;44154;45.506;-122.806;2023-02-24T11:18:35;0.52;;;0.30;;
50853;SDS011;44154;45.506;-122.806;2023-02-24T11:21:10;1.48;;;0.47;;
50853;SDS011;44154;45.506;-122.806;2023-02-24T11:26:17;0.40;;;0.30;;
50853;SDS011;44154;45.506;-122.806;2023-02-24T11:28:54;1.48;;;0.70;;
50853;SDS011;44154;45.506;-122.806;2023-02-24T11:31:46;1.55;;;0.70;;
50853;SDS011;44154;45.506;-122.806;2023-02-24T11:47:44;1.00;;;0.40;;
50853;SDS011;44154;45.506;-122.806;2023-02-24T11:52:55;1.10;;;0.50;;
50853;SDS011;44154;45.506;-122.806;2023-02-24T11:59:04;2.20;;;0.85;;
50853;SDS011;44154;45.506;-122.806;2023-02-24T12:04:39;1.85;;;0.70;;
50853;SDS011;44154;45.506;-122.806;2023-02-24T12:09:45;2.70;;;0.88;;
50853;SDS011;44154;45.506;-122.806;2023-02-24T12:12:38;3.10;;;1.02;;
50853;SDS011;44154;45.506;-122.806;2023-02-24T12:18:25;1.50;;;0.77;;
50853;SDS011;44154;45.506;-122.806;2023-02-24T12:21:38;1.98;;;0.90;;
50853;SDS011;44154;45.506;-122.806;2023-02-24T12:23:50;0.90;;;0.50;;
50853;SDS011;44154;45.506;-122.806;2023-02-24T12:26:32;2.03;;;0.60;;
50853;SDS011;44154;45.506;-122.806;2023-02-24T12:32:08;0.80;;;0.50;;
50853;SDS011;44154;45.506;-122.806;2023-02-24T12:35:03;1.20;;;0.60;;
50853;SDS011;44154;45.506;-122.806;2023-02-24T12:40:39;1.83;;;0.70;;
50853;SDS011;44154;45.506;-122.806;2023-02-24T12:43:26;1.00;;;0.70;;
50853;SDS011;44154;45.506;-122.806;2023-02-24T12:52:12;0.80;;;0.60;;
50853;SDS011;44154;45.506;-122.806;2023-02-24T12:55:06;0.70;;;0.40;;
50853;SDS011;44154;45.506;-122.806;2023-02-24T12:57:45;0.60;;;0.40;;
50853;SDS011;44154;45.506;-122.806;2023-02-24T13:05:45;1.50;;;0.85;;
50853;SDS011;44154;45.506;-122.806;2023-02-24T13:08:27;0.52;;;0.40;;
50853;SDS011;44154;45.506;-122.806;2023-02-24T13:11:28;0.75;;;0.47;;
50853;SDS011;44154;45.506;-122.806;2023-02-24T13:16:33;0.80;;;0.40;;
50853;SDS011;44154;45.506;-122.806;2023-02-24T13:19:16;0.52;;;0.30;;
50853;SDS011;44154;45.506;-122.806;2023-02-24T13:22:02;0.55;;;0.40;;
50853;SDS011;44154;45.506;-122.806;2023-02-24T13:24:39;0.73;;;0.40;;
50853;SDS011;44154;45.506;-122.806;2023-02-24T13:29:47;1.05;;;0.70;;
50853;SDS011;44154;45.506;-122.806;2023-02-24T13:32:30;0.80;;;0.50;;
50853;SDS011;44154;45.506;-122.806;2023-02-24T13:35:04;0.60;;;0.40;;
50853;SDS011;44154;45.506;-122.806;2023-02-24T13:37:50;0.93;;;0.35;;
50853;SDS011;44154;45.506;-122.806;2023-02-24T13:45:35;2.35;;;0.50;;
50853;SDS011;44154;45.506;-122.806;2023-02-24T13:56:34;0.93;;;0.50;;
50853;SDS011;44154;45.506;-122.806;2023-02-24T13:59:18;0.70;;;0.50;;
50853;SDS011;44154;45.506;-122.806;2023-02-24T14:02:00;1.52;;;0.50;;
50853;SDS011;44154;45.506;-122.806;2023-02-24T14:04:37;0.35;;;0.28;;
50853;SDS011;44154;45.506;-122.806;2023-02-24T14:07:14;0.52;;;0.30;;
50853;SDS011;44154;45.506;-122.806;2023-02-24T14:09:46;0.77;;;0.40;;
50853;SDS011;44154;45.506;-122.806;2023-02-24T14:12:31;1.38;;;0.40;;
50853;SDS011;44154;45.506;-122.806;2023-02-24T14:15:01;0.82;;;0.63;;
50853;SDS011;44154;45.506;-122.806;2023-02-24T14:20:10;0.95;;;0.57;;
50853;SDS011;44154;45.506;-122.806;2023-02-24T14:22:43;0.40;;;0.30;;
50853;SDS011;44154;45.506;-122.806;2023-02-24T14:25:14;0.50;;;0.40;;
50853;SDS011;44154;45.506;-122.806;2023-02-24T14:27:43;1.33;;;0.40;;
50853;SDS011;44154;45.506;-122.806;2023-02-24T14:30:25;1.20;;;0.57;;
50853;SDS011;44154;45.506;-122.806;2023-02-24T14:32:55;0.60;;;0.45;;
50853;SDS011;44154;45.506;-122.806;2023-02-24T14:38:25;1.50;;;0.90;;
50853;SDS011;44154;45.506;-122.806;2023-02-24T14:40:52;1.55;;;0.80;;
50853;SDS011;44154;45.506;-122.806;2023-02-24T14:43:18;0.77;;;0.60;;
50853;SDS011;44154;45.506;-122.806;2023-02-24T14:45:48;0.55;;;0.43;;
50853;SDS011;44154;45.506;-122.806;2023-02-24T14:48:19;0.60;;;0.38;;
50853;SDS011;44154;45.506;-122.806;2023-02-24T14:50:59;0.50;;;0.30;;
50853;SDS011;44154;45.506;-122.806;2023-02-24T14:53:29;0.40;;;0.40;;
50853;SDS011;44154;45.506;-122.806;2023-02-24T14:55:57;0.60;;;0.40;;
50853;SDS011;44154;45.506;-122.806;2023-02-24T14:58:29;0.50;;;0.30;;
50853;SDS011;44154;45.506;-122.806;2023-02-24T15:03:32;1.60;;;0.73;;
50853;SDS011;44154;45.506;-122.806;2023-02-24T15:06:39;0.82;;;0.63;;
50853;SDS011;44154;45.506;-122.806;2023-02-24T15:09:12;0.73;;;0.40;;
50853;SDS011;44154;45.506;-122.806;2023-02-24T15:11:52;1.00;;;0.40;;
50853;SDS011;44154;45.506;-122.806;2023-02-24T15:14:27;2.55;;;0.70;;
50853;SDS011;44154;45.506;-122.806;2023-02-24T15:16:56;0.50;;;0.40;;
50853;SDS011;44154;45.506;-122.806;2023-02-24T15:22:24;0.90;;;0.40;;
50853;SDS011;44154;45.506;-122.806;2023-02-24T15:24:53;1.25;;;0.40;;
50853;SDS011;44154;45.506;-122.806;2023-02-24T15:27:25;0.50;;;0.30;;
50853;SDS011;44154;45.506;-122.806;2023-02-24T15:29:57;1.07;;;0.57;;
50853;SDS011;44154;45.506;-122.806;2023-02-24T15:32:57;1.92;;;0.40;;
50853;SDS011;44154;45.506;-122.806;2023-02-24T15:35:48;3.03;;;0.50;;
50853;SDS011;44154;45.506;-122.806;2023-02-24T15:38:20;4.55;;;0.70;;
50853;SDS011;44154;45.506;-122.806;2023-02-24T15:40:52;1.50;;;0.45;;
50853;SDS011;44154;45.506;-122.806;2023-02-24T15:46:13;0.98;;;0.50;;
50853;SDS011;44154;45.506;-122.806;2023-02-24T15:48:59;2.50;;;0.50;;
50853;SDS011;44154;45.506;-122.806;2023-02-24T15:51:36;1.08;;;0.45;;
50853;SDS011;44154;45.506;-122.806;2023-02-24T15:54:05;1.15;;;0.50;;
50853;SDS011;44154;45.506;-122.806;2023-02-24T15:56:52;2.42;;;0.75;;
50853;SDS011;44154;45.506;-122.806;2023-02-24T15:59:18;2.55;;;0.70;;
50853;SDS011;44154;45.506;-122.806;2023-02-24T16:01:46;2.17;;;0.52;;
50853;SDS011;44154;45.506;-122.806;2023-02-24T16:04:12;2.92;;;0.55;;
50853;SDS011;44154;45.506;-122.806;2023-02-24T16:06:39;2.67;;;0.60;;
50853;SDS011;44154;45.506;-122.806;2023-02-24T16:09:18;1.05;;;0.70;;
50853;SDS011;44154;45.506;-122.806;2023-02-24T16:11:51;1.85;;;0.57;;
50853;SDS011;44154;45.506;-122.806;2023-02-24T16:14:17;3.67;;;0.80;;
50853;SDS011;44154;45.506;-122.806;2023-02-24T16:16:43;1.45;;;0.50;;
50853;SDS011;44154;45.506;-122.806;2023-02-24T16:19:12;8.15;;;1.05;;
50853;SDS011;44154;45.506;-122.806;2023-02-24T16:21:39;2.40;;;0.80;;
50853;SDS011;44154;45.506;-122.806;2023-02-24T16:24:05;6.00;;;0.85;;
50853;SDS011;44154;45.506;-122.806;2023-02-24T16:26:33;4.55;;;0.80;;
50853;SDS011;44154;45.506;-122.806;2023-02-24T16:29:02;4.00;;;0.55;;
50853;SDS011;44154;45.506;-122.806;2023-02-24T16:31:36;3.22;;;0.57;;
50853;SDS011;44154;45.506;-122.806;2023-02-24T16:34:03;4.15;;;0.85;;
50853;SDS011;44154;45.506;-122.806;2023-02-24T16:36:31;2.78;;;0.50;;
50853;SDS011;44154;45.506;-122.806;2023-02-24T16:38:57;1.15;;;0.40;;
50853;SDS011;44154;45.506;-122.806;2023-02-24T16:41:25;1.90;;;0.50;;
50853;SDS011;44154;45.506;-122.806;2023-02-24T16:43:51;4.82;;;0.73;;
50853;SDS011;44154;45.506;-122.806;2023-02-24T16:46:18;2.92;;;0.52;;
50853;SDS011;44154;45.506;-122.806;2023-02-24T16:48:47;1.02;;;0.90;;
50853;SDS011;44154;45.506;-122.806;2023-02-24T16:51:17;0.80;;;0.32;;
50853;SDS011;44154;45.506;-122.806;2023-02-24T16:53:44;0.85;;;0.30;;
50853;SDS011;44154;45.506;-122.806;2023-02-24T16:56:10;0.30;;;0.20;;
50853;SDS011;44154;45.506;-122.806;2023-02-24T16:58:39;1.40;;;0.70;;
50853;SDS011;44154;45.506;-122.806;2023-02-24T17:01:05;0.65;;;0.20;;
50853;SDS011;44154;45.506;-122.806;2023-02-24T17:06:00;1.48;;;0.38;;
50853;SDS011;44154;45.506;-122.806;2023-02-24T17:08:26;1.48;;;0.30;;
50853;SDS011;44154;45.506;-122.806;2023-02-24T17:10:52;0.80;;;0.25;;
50853;SDS011;44154;45.506;-122.806;2023-02-24T17:13:19;1.17;;;0.40;;
50853;SDS011;44154;45.506;-122.806;2023-02-24T17:15:46;0.35;;;0.25;;